O-RH(METAR)
04/24 09:00
METAR O-RH 240000Z 10002KT 9999 FEW150 BKN250 15/08 Q1014 RMK 1AC150
A2995=
戻る
トップページへ戻る
IMOC Co,.Ltd.